sensor_id;sensor_type;location;lat;lon;timestamp;temperature;humidity
17726;DHT22;8983;53.156;17.960;2023-09-19T00:00:39;22.70;99.90
17726;DHT22;8983;53.156;17.960;2023-09-19T00:03:09;22.70;99.90
17726;DHT22;8983;53.156;17.960;2023-09-19T00:05:39;22.70;99.90
17726;DHT22;8983;53.156;17.960;2023-09-19T00:08:12;22.70;99.90
17726;DHT22;8983;53.156;17.960;2023-09-19T00:10:43;22.70;99.90
17726;DHT22;8983;53.156;17.960;2023-09-19T00:13:11;22.70;99.90
17726;DHT22;8983;53.156;17.960;2023-09-19T00:15:43;22.70;99.90
17726;DHT22;8983;53.156;17.960;2023-09-19T00:18:17;22.70;99.90
17726;DHT22;8983;53.156;17.960;2023-09-19T00:20:50;22.60;99.90
17726;DHT22;8983;53.156;17.960;2023-09-19T00:23:19;22.60;99.90
17726;DHT22;8983;53.156;17.960;2023-09-19T00:25:49;22.60;99.90
17726;DHT22;8983;53.156;17.960;2023-09-19T00:28:18;22.60;99.90
17726;DHT22;8983;53.156;17.960;2023-09-19T00:30:46;22.60;99.90
17726;DHT22;8983;53.156;17.960;2023-09-19T00:33:17;22.60;99.90
17726;DHT22;8983;53.156;17.960;2023-09-19T00:35:49;22.60;99.90
17726;DHT22;8983;53.156;17.960;2023-09-19T00:38:18;22.70;99.90
17726;DHT22;8983;53.156;17.960;2023-09-19T00:40:51;22.60;99.90
17726;DHT22;8983;53.156;17.960;2023-09-19T00:43:19;22.60;99.90
17726;DHT22;8983;53.156;17.960;2023-09-19T00:45:50;22.60;99.90
17726;DHT22;8983;53.156;17.960;2023-09-19T00:48:20;22.60;99.90
17726;DHT22;8983;53.156;17.960;2023-09-19T00:50:50;22.60;99.90
17726;DHT22;8983;53.156;17.960;2023-09-19T00:53:21;22.60;99.90
17726;DHT22;8983;53.156;17.960;2023-09-19T00:55:51;22.60;99.90
17726;DHT22;8983;53.156;17.960;2023-09-19T00:58:19;22.60;99.90
17726;DHT22;8983;53.156;17.960;2023-09-19T01:00:48;22.60;99.90
17726;DHT22;8983;53.156;17.960;2023-09-19T01:03:17;22.60;99.90
17726;DHT22;8983;53.156;17.960;2023-09-19T01:05:46;22.60;99.90
17726;DHT22;8983;53.156;17.960;2023-09-19T01:08:14;22.60;99.90
17726;DHT22;8983;53.156;17.960;2023-09-19T01:10:49;22.50;99.90
17726;DHT22;8983;53.156;17.960;2023-09-19T01:13:28;22.50;99.90
17726;DHT22;8983;53.156;17.960;2023-09-19T01:16:03;22.50;99.90
17726;DHT22;8983;53.156;17.960;2023-09-19T01:18:43;22.50;99.90
17726;DHT22;8983;53.156;17.960;2023-09-19T01:21:21;22.50;99.90
17726;DHT22;8983;53.156;17.960;2023-09-19T01:24:22;22.50;99.90
17726;DHT22;8983;53.156;17.960;2023-09-19T01:27:25;22.50;99.90
17726;DHT22;8983;53.156;17.960;2023-09-19T01:30:09;22.50;99.90
17726;DHT22;8983;53.156;17.960;2023-09-19T01:32:38;22.40;99.90
17726;DHT22;8983;53.156;17.960;2023-09-19T01:35:08;22.40;99.90
17726;DHT22;8983;53.156;17.960;2023-09-19T01:37:39;22.30;99.90
17726;DHT22;8983;53.156;17.960;2023-09-19T01:40:13;22.30;99.90
17726;DHT22;8983;53.156;17.960;2023-09-19T01:42:46;22.30;99.90
17726;DHT22;8983;53.156;17.960;2023-09-19T01:45:26;22.30;99.90
17726;DHT22;8983;53.156;17.960;2023-09-19T01:47:56;22.30;99.90
17726;DHT22;8983;53.156;17.960;2023-09-19T01:50:30;22.30;99.90
17726;DHT22;8983;53.156;17.960;2023-09-19T01:53:05;22.20;99.90
17726;DHT22;8983;53.156;17.960;2023-09-19T01:55:39;22.20;99.90
17726;DHT22;8983;53.156;17.960;2023-09-19T01:58:17;22.20;99.90
17726;DHT22;8983;53.156;17.960;2023-09-19T02:00:51;22.20;99.90
17726;DHT22;8983;53.156;17.960;2023-09-19T02:03:20;22.10;99.90
17726;DHT22;8983;53.156;17.960;2023-09-19T02:05:50;22.10;99.90
17726;DHT22;8983;53.156;17.960;2023-09-19T02:08:22;22.10;99.90
17726;DHT22;8983;53.156;17.960;2023-09-19T02:10:51;22.10;99.90
17726;DHT22;8983;53.156;17.960;2023-09-19T02:13:21;22.10;99.90
17726;DHT22;8983;53.156;17.960;2023-09-19T02:15:52;22.10;99.90
17726;DHT22;8983;53.156;17.960;2023-09-19T02:18:20;22.00;99.90
17726;DHT22;8983;53.156;17.960;2023-09-19T02:20:48;22.00;99.90
17726;DHT22;8983;53.156;17.960;2023-09-19T02:23:18;22.00;99.90
17726;DHT22;8983;53.156;17.960;2023-09-19T02:25:52;21.90;99.90
17726;DHT22;8983;53.156;17.960;2023-09-19T02:28:20;21.90;99.90
17726;DHT22;8983;53.156;17.960;2023-09-19T02:30:49;22.00;99.90
17726;DHT22;8983;53.156;17.960;2023-09-19T02:33:19;21.90;99.90
17726;DHT22;8983;53.156;17.960;2023-09-19T02:35:48;21.90;99.90
17726;DHT22;8983;53.156;17.960;2023-09-19T02:38:17;21.80;99.90
17726;DHT22;8983;53.156;17.960;2023-09-19T02:40:51;21.80;99.90
17726;DHT22;8983;53.156;17.960;2023-09-19T02:43:19;21.80;99.90
17726;DHT22;8983;53.156;17.960;2023-09-19T02:45:48;21.90;99.90
17726;DHT22;8983;53.156;17.960;2023-09-19T02:48:18;21.80;99.90
17726;DHT22;8983;53.156;17.960;2023-09-19T02:50:48;21.70;99.90
17726;DHT22;8983;53.156;17.960;2023-09-19T02:53:16;21.60;99.90
17726;DHT22;8983;53.156;17.960;2023-09-19T02:55:46;21.50;99.90
17726;DHT22;8983;53.156;17.960;2023-09-19T02:58:15;21.50;99.90
17726;DHT22;8983;53.156;17.960;2023-09-19T03:00:45;21.40;99.90
17726;DHT22;8983;53.156;17.960;2023-09-19T03:03:15;21.30;99.90
17726;DHT22;8983;53.156;17.960;2023-09-19T03:05:45;21.30;99.90
17726;DHT22;8983;53.156;17.960;2023-09-19T03:08:14;21.20;99.90
17726;DHT22;8983;53.156;17.960;2023-09-19T03:10:46;21.10;99.90
17726;DHT22;8983;53.156;17.960;2023-09-19T03:13:15;20.90;99.90
17726;DHT22;8983;53.156;17.960;2023-09-19T03:15:43;20.90;99.90
17726;DHT22;8983;53.156;17.960;2023-09-19T03:18:13;20.90;99.90
17726;DHT22;8983;53.156;17.960;2023-09-19T03:20:42;20.90;99.90
17726;DHT22;8983;53.156;17.960;2023-09-19T03:23:12;20.90;99.90
17726;DHT22;8983;53.156;17.960;2023-09-19T03:25:41;20.80;99.90
17726;DHT22;8983;53.156;17.960;2023-09-19T03:28:09;20.80;99.90
17726;DHT22;8983;53.156;17.960;2023-09-19T03:30:37;20.70;99.90
17726;DHT22;8983;53.156;17.960;2023-09-19T03:33:06;20.60;99.90
17726;DHT22;8983;53.156;17.960;2023-09-19T03:35:34;20.60;99.90
17726;DHT22;8983;53.156;17.960;2023-09-19T03:38:03;20.60;99.90
17726;DHT22;8983;53.156;17.960;2023-09-19T03:40:33;20.60;99.90
17726;DHT22;8983;53.156;17.960;2023-09-19T03:43:04;20.60;99.90
17726;DHT22;8983;53.156;17.960;2023-09-19T03:45:33;20.50;99.90
17726;DHT22;8983;53.156;17.960;2023-09-19T03:48:06;20.50;99.90
17726;DHT22;8983;53.156;17.960;2023-09-19T03:50:35;20.50;99.90
17726;DHT22;8983;53.156;17.960;2023-09-19T03:53:04;20.50;99.90
17726;DHT22;8983;53.156;17.960;2023-09-19T03:55:35;20.50;99.90
17726;DHT22;8983;53.156;17.960;2023-09-19T03:58:05;20.40;99.90
17726;DHT22;8983;53.156;17.960;2023-09-19T04:00:34;20.40;99.90
17726;DHT22;8983;53.156;17.960;2023-09-19T04:03:05;20.40;99.90
17726;DHT22;8983;53.156;17.960;2023-09-19T04:05:34;20.50;99.90
17726;DHT22;8983;53.156;17.960;2023-09-19T04:08:03;20.40;99.90
17726;DHT22;8983;53.156;17.960;2023-09-19T04:10:31;20.40;99.90
17726;DHT22;8983;53.156;17.960;2023-09-19T04:13:01;20.30;99.90
17726;DHT22;8983;53.156;17.960;2023-09-19T04:15:29;20.30;99.90
17726;DHT22;8983;53.156;17.960;2023-09-19T04:17:57;20.30;99.90
17726;DHT22;8983;53.156;17.960;2023-09-19T04:20:25;20.30;99.90
17726;DHT22;8983;53.156;17.960;2023-09-19T04:22:53;20.30;99.90
17726;DHT22;8983;53.156;17.960;2023-09-19T04:25:22;20.20;99.90
17726;DHT22;8983;53.156;17.960;2023-09-19T04:27:50;20.20;99.90
17726;DHT22;8983;53.156;17.960;2023-09-19T04:30:20;20.10;99.90
17726;DHT22;8983;53.156;17.960;2023-09-19T04:32:48;20.10;99.90
17726;DHT22;8983;53.156;17.960;2023-09-19T04:35:18;19.90;99.90
17726;DHT22;8983;53.156;17.960;2023-09-19T04:37:47;20.00;99.90
17726;DHT22;8983;53.156;17.960;2023-09-19T04:40:15;20.00;99.90
17726;DHT22;8983;53.156;17.960;2023-09-19T04:42:44;20.00;99.90
17726;DHT22;8983;53.156;17.960;2023-09-19T04:45:13;19.90;99.90
17726;DHT22;8983;53.156;17.960;2023-09-19T04:47:43;20.00;99.90
17726;DHT22;8983;53.156;17.960;2023-09-19T04:50:11;20.00;99.90
17726;DHT22;8983;53.156;17.960;2023-09-19T04:52:41;20.00;99.90
17726;DHT22;8983;53.156;17.960;2023-09-19T04:55:12;20.00;99.90
17726;DHT22;8983;53.156;17.960;2023-09-19T04:57:43;20.00;99.90
17726;DHT22;8983;53.156;17.960;2023-09-19T05:00:13;19.90;99.90
17726;DHT22;8983;53.156;17.960;2023-09-19T05:02:43;19.90;99.90
17726;DHT22;8983;53.156;17.960;2023-09-19T05:05:11;19.90;99.90
17726;DHT22;8983;53.156;17.960;2023-09-19T05:07:41;20.10;99.90
17726;DHT22;8983;53.156;17.960;2023-09-19T05:10:11;20.00;99.90
17726;DHT22;8983;53.156;17.960;2023-09-19T05:12:40;20.00;99.90
17726;DHT22;8983;53.156;17.960;2023-09-19T05:15:10;19.90;99.90
17726;DHT22;8983;53.156;17.960;2023-09-19T05:17:39;19.90;99.90
17726;DHT22;8983;53.156;17.960;2023-09-19T05:20:10;20.00;99.90
17726;DHT22;8983;53.156;17.960;2023-09-19T05:22:40;19.90;99.90
17726;DHT22;8983;53.156;17.960;2023-09-19T05:25:11;19.80;99.90
17726;DHT22;8983;53.156;17.960;2023-09-19T05:27:43;19.80;99.90
17726;DHT22;8983;53.156;17.960;2023-09-19T05:30:11;19.70;99.90
17726;DHT22;8983;53.156;17.960;2023-09-19T05:32:41;19.80;99.90
17726;DHT22;8983;53.156;17.960;2023-09-19T05:35:12;19.90;99.90
17726;DHT22;8983;53.156;17.960;2023-09-19T05:37:40;19.90;99.90
17726;DHT22;8983;53.156;17.960;2023-09-19T05:40:09;19.80;99.90
17726;DHT22;8983;53.156;17.960;2023-09-19T05:42:38;19.90;99.90
17726;DHT22;8983;53.156;17.960;2023-09-19T05:45:08;19.90;99.90
17726;DHT22;8983;53.156;17.960;2023-09-19T05:47:39;19.90;99.90
17726;DHT22;8983;53.156;17.960;2023-09-19T05:50:14;19.90;99.90
17726;DHT22;8983;53.156;17.960;2023-09-19T05:52:43;19.90;99.90
17726;DHT22;8983;53.156;17.960;2023-09-19T05:55:12;19.80;99.90
17726;DHT22;8983;53.156;17.960;2023-09-19T05:57:41;19.80;99.90
17726;DHT22;8983;53.156;17.960;2023-09-19T06:00:11;19.90;99.90
17726;DHT22;8983;53.156;17.960;2023-09-19T06:02:39;19.90;99.90
17726;DHT22;8983;53.156;17.960;2023-09-19T06:05:08;19.90;99.90
17726;DHT22;8983;53.156;17.960;2023-09-19T06:07:39;19.90;99.90
17726;DHT22;8983;53.156;17.960;2023-09-19T06:10:08;20.00;99.90
17726;DHT22;8983;53.156;17.960;2023-09-19T06:12:38;19.90;99.90
17726;DHT22;8983;53.156;17.960;2023-09-19T06:15:07;19.90;99.90
17726;DHT22;8983;53.156;17.960;2023-09-19T06:17:35;19.80;99.90
17726;DHT22;8983;53.156;17.960;2023-09-19T06:20:06;19.80;99.90
17726;DHT22;8983;53.156;17.960;2023-09-19T06:22:41;19.80;99.90
17726;DHT22;8983;53.156;17.960;2023-09-19T06:25:10;19.70;99.90
17726;DHT22;8983;53.156;17.960;2023-09-19T06:27:39;19.80;99.90
17726;DHT22;8983;53.156;17.960;2023-09-19T06:30:09;19.70;99.90
17726;DHT22;8983;53.156;17.960;2023-09-19T06:32:38;19.90;99.90
17726;DHT22;8983;53.156;17.960;2023-09-19T06:35:06;20.00;99.90
17726;DHT22;8983;53.156;17.960;2023-09-19T06:37:35;20.00;99.90
17726;DHT22;8983;53.156;17.960;2023-09-19T06:40:08;20.00;99.90
17726;DHT22;8983;53.156;17.960;2023-09-19T06:42:40;20.00;99.90
17726;DHT22;8983;53.156;17.960;2023-09-19T06:45:09;20.00;99.90
17726;DHT22;8983;53.156;17.960;2023-09-19T06:47:38;20.00;99.90
17726;DHT22;8983;53.156;17.960;2023-09-19T06:50:06;20.00;99.90
17726;DHT22;8983;53.156;17.960;2023-09-19T06:52:40;20.00;99.90
17726;DHT22;8983;53.156;17.960;2023-09-19T06:55:10;20.00;99.90
17726;DHT22;8983;53.156;17.960;2023-09-19T06:57:40;20.00;99.90
17726;DHT22;8983;53.156;17.960;2023-09-19T07:00:11;20.00;99.90
17726;DHT22;8983;53.156;17.960;2023-09-19T07:02:45;20.00;99.90
17726;DHT22;8983;53.156;17.960;2023-09-19T07:05:13;20.00;99.90
17726;DHT22;8983;53.156;17.960;2023-09-19T07:07:41;20.00;99.90
17726;DHT22;8983;53.156;17.960;2023-09-19T07:10:13;20.00;99.90
17726;DHT22;8983;53.156;17.960;2023-09-19T07:12:41;20.00;99.90
17726;DHT22;8983;53.156;17.960;2023-09-19T07:15:10;20.10;99.90
17726;DHT22;8983;53.156;17.960;2023-09-19T07:17:38;20.20;99.90
17726;DHT22;8983;53.156;17.960;2023-09-19T07:20:07;20.20;99.90
17726;DHT22;8983;53.156;17.960;2023-09-19T07:22:35;20.20;99.90
17726;DHT22;8983;53.156;17.960;2023-09-19T07:25:07;20.30;99.90
17726;DHT22;8983;53.156;17.960;2023-09-19T07:27:36;20.20;99.90
17726;DHT22;8983;53.156;17.960;2023-09-19T07:30:05;20.30;99.90
17726;DHT22;8983;53.156;17.960;2023-09-19T07:32:35;20.20;99.90
17726;DHT22;8983;53.156;17.960;2023-09-19T07:35:05;20.20;99.90
17726;DHT22;8983;53.156;17.960;2023-09-19T07:37:35;20.30;99.90
17726;DHT22;8983;53.156;17.960;2023-09-19T07:40:04;20.30;99.90
17726;DHT22;8983;53.156;17.960;2023-09-19T07:42:33;20.40;99.90
17726;DHT22;8983;53.156;17.960;2023-09-19T07:45:06;20.40;99.90
17726;DHT22;8983;53.156;17.960;2023-09-19T07:47:34;20.40;99.90
17726;DHT22;8983;53.156;17.960;2023-09-19T07:50:03;20.40;99.90
17726;DHT22;8983;53.156;17.960;2023-09-19T07:52:34;20.30;99.90
17726;DHT22;8983;53.156;17.960;2023-09-19T07:55:03;20.30;99.90
17726;DHT22;8983;53.156;17.960;2023-09-19T07:57:36;20.30;99.90
17726;DHT22;8983;53.156;17.960;2023-09-19T08:00:06;20.30;99.90
17726;DHT22;8983;53.156;17.960;2023-09-19T08:02:35;20.40;99.90
17726;DHT22;8983;53.156;17.960;2023-09-19T08:05:06;20.20;99.90
17726;DHT22;8983;53.156;17.960;2023-09-19T08:07:37;20.30;99.90
17726;DHT22;8983;53.156;17.960;2023-09-19T08:10:06;20.40;99.90
17726;DHT22;8983;53.156;17.960;2023-09-19T08:12:40;20.40;99.90
17726;DHT22;8983;53.156;17.960;2023-09-19T08:15:16;20.40;99.90
17726;DHT22;8983;53.156;17.960;2023-09-19T08:17:44;20.40;99.90
17726;DHT22;8983;53.156;17.960;2023-09-19T08:20:13;20.50;99.90
17726;DHT22;8983;53.156;17.960;2023-09-19T08:22:44;20.50;99.90
17726;DHT22;8983;53.156;17.960;2023-09-19T08:25:15;20.50;99.90
17726;DHT22;8983;53.156;17.960;2023-09-19T08:27:45;20.40;99.90
17726;DHT22;8983;53.156;17.960;2023-09-19T08:30:19;20.40;99.90
17726;DHT22;8983;53.156;17.960;2023-09-19T08:32:51;20.40;99.90
17726;DHT22;8983;53.156;17.960;2023-09-19T08:35:25;20.50;99.90
17726;DHT22;8983;53.156;17.960;2023-09-19T08:37:53;20.60;99.90
17726;DHT22;8983;53.156;17.960;2023-09-19T08:40:23;20.60;99.90
17726;DHT22;8983;53.156;17.960;2023-09-19T08:42:53;20.70;99.90
17726;DHT22;8983;53.156;17.960;2023-09-19T08:45:24;20.80;99.90
17726;DHT22;8983;53.156;17.960;2023-09-19T08:48:02;20.80;99.90
17726;DHT22;8983;53.156;17.960;2023-09-19T08:50:42;20.80;99.90
17726;DHT22;8983;53.156;17.960;2023-09-19T08:53:11;20.90;99.90
17726;DHT22;8983;53.156;17.960;2023-09-19T08:55:43;20.90;99.90
17726;DHT22;8983;53.156;17.960;2023-09-19T08:58:14;20.90;99.90
17726;DHT22;8983;53.156;17.960;2023-09-19T09:00:48;20.80;99.90
17726;DHT22;8983;53.156;17.960;2023-09-19T09:03:18;20.90;99.90
17726;DHT22;8983;53.156;17.960;2023-09-19T09:05:49;21.00;99.90
17726;DHT22;8983;53.156;17.960;2023-09-19T09:08:19;21.10;99.90
17726;DHT22;8983;53.156;17.960;2023-09-19T09:10:49;21.20;99.90
17726;DHT22;8983;53.156;17.960;2023-09-19T09:13:18;21.30;99.90
17726;DHT22;8983;53.156;17.960;2023-09-19T09:15:48;21.20;99.90
17726;DHT22;8983;53.156;17.960;2023-09-19T09:18:17;21.30;99.90
17726;DHT22;8983;53.156;17.960;2023-09-19T09:20:45;21.40;99.90
17726;DHT22;8983;53.156;17.960;2023-09-19T09:23:15;21.50;99.90
17726;DHT22;8983;53.156;17.960;2023-09-19T09:25:47;21.50;99.90
17726;DHT22;8983;53.156;17.960;2023-09-19T09:28:20;21.60;99.90
17726;DHT22;8983;53.156;17.960;2023-09-19T09:30:50;21.60;99.90
17726;DHT22;8983;53.156;17.960;2023-09-19T09:33:18;21.60;99.90
17726;DHT22;8983;53.156;17.960;2023-09-19T09:35:50;21.60;99.90
17726;DHT22;8983;53.156;17.960;2023-09-19T09:38:20;21.60;99.90
17726;DHT22;8983;53.156;17.960;2023-09-19T09:40:53;21.80;99.90
17726;DHT22;8983;53.156;17.960;2023-09-19T09:43:31;21.60;99.90
17726;DHT22;8983;53.156;17.960;2023-09-19T09:46:09;21.60;99.90
17726;DHT22;8983;53.156;17.960;2023-09-19T09:48:57;21.70;99.90
17726;DHT22;8983;53.156;17.960;2023-09-19T09:51:44;21.70;99.90
17726;DHT22;8983;53.156;17.960;2023-09-19T09:54:15;21.70;99.90
17726;DHT22;8983;53.156;17.960;2023-09-19T09:56:57;21.70;99.90
17726;DHT22;8983;53.156;17.960;2023-09-19T09:59:48;21.70;99.90
17726;DHT22;8983;53.156;17.960;2023-09-19T10:02:20;21.80;99.90
17726;DHT22;8983;53.156;17.960;2023-09-19T10:04:57;21.90;99.90
17726;DHT22;8983;53.156;17.960;2023-09-19T10:07:41;21.80;99.90
17726;DHT22;8983;53.156;17.960;2023-09-19T10:10:15;21.80;99.90
17726;DHT22;8983;53.156;17.960;2023-09-19T10:12:49;21.70;99.90
17726;DHT22;8983;53.156;17.960;2023-09-19T10:15:18;21.80;99.90
17726;DHT22;8983;53.156;17.960;2023-09-19T10:17:50;22.20;99.90
17726;DHT22;8983;53.156;17.960;2023-09-19T10:20:26;22.30;99.90
17726;DHT22;8983;53.156;17.960;2023-09-19T10:23:07;22.30;99.90
17726;DHT22;8983;53.156;17.960;2023-09-19T10:25:40;22.40;99.90
17726;DHT22;8983;53.156;17.960;2023-09-19T10:28:11;22.20;99.90
17726;DHT22;8983;53.156;17.960;2023-09-19T10:30:42;22.10;99.90
17726;DHT22;8983;53.156;17.960;2023-09-19T10:33:15;22.10;99.90
17726;DHT22;8983;53.156;17.960;2023-09-19T10:35:45;22.00;99.90
17726;DHT22;8983;53.156;17.960;2023-09-19T10:38:17;22.10;99.90
17726;DHT22;8983;53.156;17.960;2023-09-19T10:40:49;22.10;99.90
17726;DHT22;8983;53.156;17.960;2023-09-19T10:43:20;22.00;99.90
17726;DHT22;8983;53.156;17.960;2023-09-19T10:45:49;22.20;99.90
17726;DHT22;8983;53.156;17.960;2023-09-19T10:48:21;22.10;99.90
17726;DHT22;8983;53.156;17.960;2023-09-19T10:51:06;22.30;99.90
17726;DHT22;8983;53.156;17.960;2023-09-19T10:53:43;22.50;99.90
17726;DHT22;8983;53.156;17.960;2023-09-19T10:56:19;22.50;99.90
17726;DHT22;8983;53.156;17.960;2023-09-19T10:58:49;22.60;99.90
17726;DHT22;8983;53.156;17.960;2023-09-19T11:01:18;22.70;99.90
17726;DHT22;8983;53.156;17.960;2023-09-19T11:04:23;22.70;99.90
17726;DHT22;8983;53.156;17.960;2023-09-19T11:07:06;22.70;99.90
17726;DHT22;8983;53.156;17.960;2023-09-19T11:09:43;22.70;99.90
17726;DHT22;8983;53.156;17.960;2023-09-19T11:12:13;22.70;99.90
17726;DHT22;8983;53.156;17.960;2023-09-19T11:15:08;22.70;99.90
17726;DHT22;8983;53.156;17.960;2023-09-19T11:17:38;22.90;99.90
17726;DHT22;8983;53.156;17.960;2023-09-19T11:20:23;23.10;99.90
17726;DHT22;8983;53.156;17.960;2023-09-19T11:23:19;23.30;99.90
17726;DHT22;8983;53.156;17.960;2023-09-19T11:25:52;23.50;99.90
17726;DHT22;8983;53.156;17.960;2023-09-19T11:28:34;23.70;99.90
17726;DHT22;8983;53.156;17.960;2023-09-19T11:34:40;24.40;99.90
17726;DHT22;8983;53.156;17.960;2023-09-19T11:40:47;24.60;99.90
17726;DHT22;8983;53.156;17.960;2023-09-19T11:43:29;24.60;99.90
17726;DHT22;8983;53.156;17.960;2023-09-19T11:46:04;24.50;99.90
17726;DHT22;8983;53.156;17.960;2023-09-19T11:48:34;24.50;99.90
17726;DHT22;8983;53.156;17.960;2023-09-19T11:51:17;24.40;99.90
17726;DHT22;8983;53.156;17.960;2023-09-19T11:53:56;24.10;99.90
17726;DHT22;8983;53.156;17.960;2023-09-19T11:56:28;24.00;99.90
17726;DHT22;8983;53.156;17.960;2023-09-19T11:58:58;24.30;99.90
17726;DHT22;8983;53.156;17.960;2023-09-19T12:01:29;24.60;99.90
17726;DHT22;8983;53.156;17.960;2023-09-19T12:04:00;24.80;99.90
17726;DHT22;8983;53.156;17.960;2023-09-19T12:06:31;24.90;99.90
17726;DHT22;8983;53.156;17.960;2023-09-19T12:09:00;25.00;99.90
17726;DHT22;8983;53.156;17.960;2023-09-19T12:11:31;25.20;99.90
17726;DHT22;8983;53.156;17.960;2023-09-19T12:14:01;25.40;99.90
17726;DHT22;8983;53.156;17.960;2023-09-19T12:16:31;25.70;99.90
17726;DHT22;8983;53.156;17.960;2023-09-19T12:19:19;25.90;99.90
17726;DHT22;8983;53.156;17.960;2023-09-19T12:21:57;26.00;99.90
17726;DHT22;8983;53.156;17.960;2023-09-19T12:24:27;26.10;99.80
17726;DHT22;8983;53.156;17.960;2023-09-19T12:27:02;26.20;99.30
17726;DHT22;8983;53.156;17.960;2023-09-19T12:29:42;26.00;98.70
17726;DHT22;8983;53.156;17.960;2023-09-19T12:32:11;25.90;98.60
17726;DHT22;8983;53.156;17.960;2023-09-19T12:34:39;25.90;98.50
17726;DHT22;8983;53.156;17.960;2023-09-19T12:37:11;25.70;98.30
17726;DHT22;8983;53.156;17.960;2023-09-19T12:39:40;25.60;98.20
17726;DHT22;8983;53.156;17.960;2023-09-19T12:42:11;25.40;98.00
17726;DHT22;8983;53.156;17.960;2023-09-19T12:44:42;25.10;97.90
17726;DHT22;8983;53.156;17.960;2023-09-19T12:47:15;25.00;98.20
17726;DHT22;8983;53.156;17.960;2023-09-19T12:50:06;25.30;97.50
17726;DHT22;8983;53.156;17.960;2023-09-19T12:52:40;25.60;97.10
17726;DHT22;8983;53.156;17.960;2023-09-19T12:55:20;26.00;96.70
17726;DHT22;8983;53.156;17.960;2023-09-19T12:57:58;26.20;95.60
17726;DHT22;8983;53.156;17.960;2023-09-19T13:00:33;26.00;95.10
17726;DHT22;8983;53.156;17.960;2023-09-19T13:03:16;26.20;95.20
17726;DHT22;8983;53.156;17.960;2023-09-19T13:05:50;26.40;94.40
17726;DHT22;8983;53.156;17.960;2023-09-19T13:08:23;26.60;94.10
17726;DHT22;8983;53.156;17.960;2023-09-19T13:11:15;26.80;93.50
17726;DHT22;8983;53.156;17.960;2023-09-19T13:13:48;26.90;92.40
17726;DHT22;8983;53.156;17.960;2023-09-19T13:16:21;27.00;92.20
17726;DHT22;8983;53.156;17.960;2023-09-19T13:18:52;27.10;91.90
17726;DHT22;8983;53.156;17.960;2023-09-19T13:21:31;27.30;91.60
17726;DHT22;8983;53.156;17.960;2023-09-19T13:24:20;27.50;91.20
17726;DHT22;8983;53.156;17.960;2023-09-19T13:26:49;27.40;90.50
17726;DHT22;8983;53.156;17.960;2023-09-19T13:29:19;27.10;90.70
17726;DHT22;8983;53.156;17.960;2023-09-19T13:31:48;27.00;90.60
17726;DHT22;8983;53.156;17.960;2023-09-19T13:34:16;27.10;90.40
17726;DHT22;8983;53.156;17.960;2023-09-19T13:36:45;27.30;90.00
17726;DHT22;8983;53.156;17.960;2023-09-19T13:39:15;27.50;89.20
17726;DHT22;8983;53.156;17.960;2023-09-19T13:41:44;27.50;86.90
17726;DHT22;8983;53.156;17.960;2023-09-19T13:44:14;27.30;86.10
17726;DHT22;8983;53.156;17.960;2023-09-19T13:46:45;27.10;85.50
17726;DHT22;8983;53.156;17.960;2023-09-19T13:49:14;27.10;84.70
17726;DHT22;8983;53.156;17.960;2023-09-19T13:51:47;27.20;83.90
17726;DHT22;8983;53.156;17.960;2023-09-19T13:54:15;27.20;82.80
17726;DHT22;8983;53.156;17.960;2023-09-19T13:56:43;27.20;81.70
17726;DHT22;8983;53.156;17.960;2023-09-19T13:59:11;27.20;81.30
17726;DHT22;8983;53.156;17.960;2023-09-19T14:01:40;27.10;80.50
17726;DHT22;8983;53.156;17.960;2023-09-19T14:04:10;26.90;79.80
17726;DHT22;8983;53.156;17.960;2023-09-19T14:06:41;26.80;79.30
17726;DHT22;8983;53.156;17.960;2023-09-19T14:09:09;26.50;79.20
17726;DHT22;8983;53.156;17.960;2023-09-19T14:11:38;26.30;79.60
17726;DHT22;8983;53.156;17.960;2023-09-19T14:14:07;26.20;79.50
17726;DHT22;8983;53.156;17.960;2023-09-19T14:16:36;26.20;79.70
17726;DHT22;8983;53.156;17.960;2023-09-19T14:19:04;26.20;79.90
17726;DHT22;8983;53.156;17.960;2023-09-19T14:21:36;26.20;79.40
17726;DHT22;8983;53.156;17.960;2023-09-19T14:24:06;26.30;79.50
17726;DHT22;8983;53.156;17.960;2023-09-19T14:26:36;26.50;79.20
17726;DHT22;8983;53.156;17.960;2023-09-19T14:29:04;26.80;78.90
17726;DHT22;8983;53.156;17.960;2023-09-19T14:31:37;27.20;78.30
17726;DHT22;8983;53.156;17.960;2023-09-19T14:34:05;27.40;77.60
17726;DHT22;8983;53.156;17.960;2023-09-19T14:36:33;27.50;76.90
17726;DHT22;8983;53.156;17.960;2023-09-19T14:39:03;27.50;76.30
17726;DHT22;8983;53.156;17.960;2023-09-19T14:41:31;27.50;75.90
17726;DHT22;8983;53.156;17.960;2023-09-19T14:43:59;27.50;75.40
17726;DHT22;8983;53.156;17.960;2023-09-19T14:46:27;27.40;75.10
17726;DHT22;8983;53.156;17.960;2023-09-19T14:48:57;27.30;75.10
17726;DHT22;8983;53.156;17.960;2023-09-19T14:51:29;27.30;74.70
17726;DHT22;8983;53.156;17.960;2023-09-19T14:53:57;27.30;73.80
17726;DHT22;8983;53.156;17.960;2023-09-19T14:56:27;27.10;73.40
17726;DHT22;8983;53.156;17.960;2023-09-19T14:58:56;26.90;73.60
17726;DHT22;8983;53.156;17.960;2023-09-19T15:01:24;26.60;74.00
17726;DHT22;8983;53.156;17.960;2023-09-19T15:03:53;26.40;74.50
17726;DHT22;8983;53.156;17.960;2023-09-19T15:06:22;26.10;74.90
17726;DHT22;8983;53.156;17.960;2023-09-19T15:08:50;25.80;75.40
17726;DHT22;8983;53.156;17.960;2023-09-19T15:11:19;25.60;76.00
17726;DHT22;8983;53.156;17.960;2023-09-19T15:13:52;25.60;76.60
17726;DHT22;8983;53.156;17.960;2023-09-19T15:16:20;25.60;77.00
17726;DHT22;8983;53.156;17.960;2023-09-19T15:18:49;25.40;77.10
17726;DHT22;8983;53.156;17.960;2023-09-19T15:21:19;25.30;77.20
17726;DHT22;8983;53.156;17.960;2023-09-19T15:23:47;25.20;77.50
17726;DHT22;8983;53.156;17.960;2023-09-19T15:26:15;25.10;77.80
17726;DHT22;8983;53.156;17.960;2023-09-19T15:28:49;25.00;78.20
17726;DHT22;8983;53.156;17.960;2023-09-19T15:31:17;24.90;78.70
17726;DHT22;8983;53.156;17.960;2023-09-19T15:33:45;24.80;79.10
17726;DHT22;8983;53.156;17.960;2023-09-19T15:36:14;24.70;79.60
17726;DHT22;8983;53.156;17.960;2023-09-19T15:38:59;24.60;80.00
17726;DHT22;8983;53.156;17.960;2023-09-19T15:41:29;24.50;80.40
17726;DHT22;8983;53.156;17.960;2023-09-19T15:44:00;24.40;80.80
17726;DHT22;8983;53.156;17.960;2023-09-19T15:46:29;24.20;81.20
17726;DHT22;8983;53.156;17.960;2023-09-19T15:48:58;24.10;81.40
17726;DHT22;8983;53.156;17.960;2023-09-19T15:51:27;24.10;81.80
17726;DHT22;8983;53.156;17.960;2023-09-19T15:53:58;24.00;82.20
17726;DHT22;8983;53.156;17.960;2023-09-19T15:56:27;23.90;82.40
17726;DHT22;8983;53.156;17.960;2023-09-19T15:58:56;23.80;82.80
17726;DHT22;8983;53.156;17.960;2023-09-19T16:01:26;23.70;83.20
17726;DHT22;8983;53.156;17.960;2023-09-19T16:03:54;23.60;83.30